Detall de PIREP

Printer-friendly versionPDF version

[2014/05/27 07:20:00]
Flight IATA:CT3116
Pilot Number:042
Company ICAO:CAT
Aircraft Type:F100/A
PAX:46
Aircraft Registration:PFJ
Departing Airport: LEBL
Destination Airport: LEZG
Alternate Airport:LEMD
Online: VATSIM
Route:LOBAR
Flight Level:F230
No Slew and time accel
No pause
Crash detect
Detect pilot in Cockpit between each 30 and 45 minutes
07:20 Zero fuel Weight: 81825 Lbs, Fuel Weight: 22634 Lbs
07:20 VATSIM:LEBL 270700Z 33009G23KT 9999 FEW025 15/10 Q1020 NOSIG
07:20 VATSIM:LEZG 270700Z 28011KT 260V320 9999 FEW040 SCT085 13/06 Q1021
07:24 Parking Brakes off
07:27 Take-off
07:27 Take off Weight: 104038 Lbs
07:27 Wind: 329º @ 009 Knots Heading: 247º
07:27 POS N41º 17´ 02´´ E002º 04´ 44´´
07:27 Gear Up: 179 Knots
07:27 Flaps:2 at 179 Knots
07:27 Flaps:1 at 197 Knots
07:28 Flaps:0 at 201 Knots
07:38 TOC
07:38 Fuel Weight: 20495 Lb
07:42 Wind:289º@012 Knots Heading: 310º Ground Speed: 420 Knots Altitude 23208 ft
07:47 TOD
07:47 Fuel Weight: 19647 Lb
07:54 Flaps:1 at 231 Knots
07:57 Wind:285º@008 Knots Heading: 265º Ground Speed: 219 Knots Altitude 3602 ft
07:59 Flaps:2 at 205 Knots
07:59 Gear Down: 204 Knots
07:59 Flaps:3 at 204 Knots
08:02 TouchDown:Rate -173 ft/min Speed: 146 Knots
08:02 VATSIM:LEZG 270730Z 29009KT 260V330 9999 FEW060 SCT088 13/06 Q1021
08:02 Land
08:02 Wind:299º@009 Knots
08:02 Heading: 299º
08:02 Flight Duration: 00:35
08:02 Landing Weight: 100469 Lbs
08:02 POS N41º 39´ 43´´ W001º 01´ 26´´
08:03 Parking brakes on
08:03 Block to Block Duration: 00:39
08:03 Final Fuel: 18573 Lbls
08:03 Spent Fuel: 4060 Lbls
08:03 Flight Length: 181 NM
08:03 TOD Land Length: 62 NM

Exportar CSV

Powered by Drupal - Modified by Danger4k